sensor_id;sensor_type;location;lat;lon;timestamp;pressure;altitude;pressure_sealevel;temperature;humidity
48517;BME280;34310;51.904;4.256;2023-03-23T00:00:06;100167.41;;;15.23;62.30
48517;BME280;34310;51.904;4.256;2023-03-23T00:02:33;100176.09;;;15.23;62.21
48517;BME280;34310;51.904;4.256;2023-03-23T00:05:08;100178.69;;;15.23;62.25
48517;BME280;34310;51.904;4.256;2023-03-23T00:07:35;100189.09;;;15.23;62.16
48517;BME280;34310;51.904;4.256;2023-03-23T00:10:02;100186.50;;;15.23;62.32
48517;BME280;34310;51.904;4.256;2023-03-23T00:12:30;100168.28;;;15.23;62.15
48517;BME280;34310;51.904;4.256;2023-03-23T00:15:00;100172.59;;;15.23;62.22
48517;BME280;34310;51.904;4.256;2023-03-23T00:17:31;100168.28;;;15.23;62.26
48517;BME280;34310;51.904;4.256;2023-03-23T00:20:01;100167.41;;;15.23;62.27
48517;BME280;34310;51.904;4.256;2023-03-23T00:22:30;100160.41;;;15.22;62.18
48517;BME280;34310;51.904;4.256;2023-03-23T00:24:57;100157.81;;;15.22;62.25
48517;BME280;34310;51.904;4.256;2023-03-23T00:27:23;100163.91;;;15.22;62.23
48517;BME280;34310;51.904;4.256;2023-03-23T00:29:50;100158.72;;;15.22;62.26
48517;BME280;34310;51.904;4.256;2023-03-23T00:32:24;100149.19;;;15.23;62.18
48517;BME280;34310;51.904;4.256;2023-03-23T00:34:58;100148.25;;;15.21;62.30
48517;BME280;34310;51.904;4.256;2023-03-23T00:37:27;100143.88;;;15.19;62.21
48517;BME280;34310;51.904;4.256;2023-03-23T00:39:54;100144.75;;;15.20;62.33
48517;BME280;34310;51.904;4.256;2023-03-23T00:42:23;100148.25;;;15.21;62.15
48517;BME280;34310;51.904;4.256;2023-03-23T00:44:49;100143.03;;;15.21;62.28
48517;BME280;34310;51.904;4.256;2023-03-23T00:47:16;100155.16;;;15.20;62.24
48517;BME280;34310;51.904;4.256;2023-03-23T00:49:43;100149.06;;;15.19;62.15
48517;BME280;34310;51.904;4.256;2023-03-23T00:52:10;100142.97;;;15.19;62.27
48517;BME280;34310;51.904;4.256;2023-03-23T00:54:36;100140.38;;;15.19;62.32
48517;BME280;34310;51.904;4.256;2023-03-23T00:57:04;100158.59;;;15.19;62.20
48517;BME280;34310;51.904;4.256;2023-03-23T00:59:31;100154.28;;;15.19;62.19
48517;BME280;34310;51.904;4.256;2023-03-23T01:01:57;100125.59;;;15.18;62.10
48517;BME280;34310;51.904;4.256;2023-03-23T01:04:23;100136.00;;;15.18;62.19
48517;BME280;34310;51.904;4.256;2023-03-23T01:06:51;100129.97;;;15.19;62.11
48517;BME280;34310;51.904;4.256;2023-03-23T01:09:18;100126.50;;;15.18;62.22
48517;BME280;34310;51.904;4.256;2023-03-23T01:11:48;100123.00;;;15.18;62.24
48517;BME280;34310;51.904;4.256;2023-03-23T01:14:17;100128.22;;;15.18;62.20
48517;BME280;34310;51.904;4.256;2023-03-23T01:16:44;100120.41;;;15.18;62.26
48517;BME280;34310;51.904;4.256;2023-03-23T01:19:11;100114.31;;;15.17;62.16
48517;BME280;34310;51.904;4.256;2023-03-23T01:21:37;100114.31;;;15.17;62.12
48517;BME280;34310;51.904;4.256;2023-03-23T01:24:04;100112.59;;;15.18;62.14
48517;BME280;34310;51.904;4.256;2023-03-23T01:26:31;100110.84;;;15.17;62.20
48517;BME280;34310;51.904;4.256;2023-03-23T01:28:57;100113.44;;;15.17;62.12
48517;BME280;34310;51.904;4.256;2023-03-23T01:31:24;100113.44;;;15.17;62.28
48517;BME280;34310;51.904;4.256;2023-03-23T01:33:51;100110.88;;;15.18;62.25
48517;BME280;34310;51.904;4.256;2023-03-23T01:36:20;100113.50;;;15.18;62.23
48517;BME280;34310;51.904;4.256;2023-03-23T01:38:48;100106.56;;;15.19;62.09
48517;BME280;34310;51.904;4.256;2023-03-23T01:41:16;100102.16;;;15.16;62.14
48517;BME280;34310;51.904;4.256;2023-03-23T01:44:04;100094.41;;;15.18;62.28
48517;BME280;34310;51.904;4.256;2023-03-23T01:46:33;100103.09;;;15.18;62.29
48517;BME280;34310;51.904;4.256;2023-03-23T01:51:54;100097.81;;;15.17;62.16
48517;BME280;34310;51.904;4.256;2023-03-23T01:54:23;100096.13;;;15.17;62.24
48517;BME280;34310;51.904;4.256;2023-03-23T01:59:28;100102.16;;;15.16;62.32
48517;BME280;34310;51.904;4.256;2023-03-23T02:01:56;100103.78;;;15.14;62.29
48517;BME280;34310;51.904;4.256;2023-03-23T02:04:24;100108.16;;;15.15;62.20
48517;BME280;34310;51.904;4.256;2023-03-23T02:06:54;100101.25;;;15.16;62.22
48517;BME280;34310;51.904;4.256;2023-03-23T02:09:25;100112.53;;;15.16;62.21
48517;BME280;34310;51.904;4.256;2023-03-23T02:11:52;100102.16;;;15.16;62.31
48517;BME280;34310;51.904;4.256;2023-03-23T02:14:20;100113.38;;;15.15;62.24
48517;BME280;34310;51.904;4.256;2023-03-23T02:17:07;100100.38;;;15.15;62.24
48517;BME280;34310;51.904;4.256;2023-03-23T02:24:56;100093.44;;;15.16;62.23
48517;BME280;34310;51.904;4.256;2023-03-23T02:28:16;100096.94;;;15.16;62.21
48517;BME280;34310;51.904;4.256;2023-03-23T02:33:36;100091.75;;;15.16;62.23
48517;BME280;34310;51.904;4.256;2023-03-23T02:36:34;100096.06;;;15.16;62.24
48517;BME280;34310;51.904;4.256;2023-03-23T02:39:09;100088.25;;;15.16;62.21
48517;BME280;34310;51.904;4.256;2023-03-23T02:41:44;100093.44;;;15.16;62.31
48517;BME280;34310;51.904;4.256;2023-03-23T02:44:13;100100.38;;;15.15;62.36
48517;BME280;34310;51.904;4.256;2023-03-23T02:46:41;100093.44;;;15.16;62.36
48517;BME280;34310;51.904;4.256;2023-03-23T02:49:11;100096.88;;;15.15;62.35
48517;BME280;34310;51.904;4.256;2023-03-23T02:51:40;100096.88;;;15.15;62.38
48517;BME280;34310;51.904;4.256;2023-03-23T02:54:07;100089.97;;;15.15;62.41
48517;BME280;34310;51.904;4.256;2023-03-23T02:56:35;100086.47;;;15.15;62.37
48517;BME280;34310;51.904;4.256;2023-03-23T02:59:02;100089.97;;;15.15;62.23
48517;BME280;34310;51.904;4.256;2023-03-23T03:03:57;100089.09;;;15.15;62.37
48517;BME280;34310;51.904;4.256;2023-03-23T03:06:38;100096.06;;;15.16;62.29
48517;BME280;34310;51.904;4.256;2023-03-23T03:09:49;100090.84;;;15.16;62.22
48517;BME280;34310;51.904;4.256;2023-03-23T03:12:43;100091.69;;;15.15;62.23
48517;BME280;34310;51.904;4.256;2023-03-23T03:15:34;100090.84;;;15.16;62.32
48517;BME280;34310;51.904;4.256;2023-03-23T03:18:10;100100.38;;;15.15;62.29
48517;BME280;34310;51.904;4.256;2023-03-23T03:20:49;100092.56;;;15.15;62.30
48517;BME280;34310;51.904;4.256;2023-03-23T03:23:17;100094.28;;;15.15;62.29
48517;BME280;34310;51.904;4.256;2023-03-23T03:25:47;100096.00;;;15.14;62.30
48517;BME280;34310;51.904;4.256;2023-03-23T03:28:19;100090.84;;;15.16;62.36
48517;BME280;34310;51.904;4.256;2023-03-23T03:31:07;100096.88;;;15.15;62.24
48517;BME280;34310;51.904;4.256;2023-03-23T03:33:34;100089.09;;;15.15;62.25
48517;BME280;34310;51.904;4.256;2023-03-23T03:36:03;100088.19;;;15.14;62.32
48517;BME280;34310;51.904;4.256;2023-03-23T03:38:30;100087.38;;;15.15;62.23
48517;BME280;34310;51.904;4.256;2023-03-23T03:41:06;100079.56;;;15.15;62.34
48517;BME280;34310;51.904;4.256;2023-03-23T03:43:32;100089.09;;;15.15;62.27
48517;BME280;34310;51.904;4.256;2023-03-23T03:45:58;100091.69;;;15.15;62.32
48517;BME280;34310;51.904;4.256;2023-03-23T03:48:24;100095.16;;;15.15;62.37
48517;BME280;34310;51.904;4.256;2023-03-23T03:50:51;100096.06;;;15.16;62.21
48517;BME280;34310;51.904;4.256;2023-03-23T03:53:18;100102.16;;;15.16;62.40
48517;BME280;34310;51.904;4.256;2023-03-23T03:55:44;100112.53;;;15.16;62.37
48517;BME280;34310;51.904;4.256;2023-03-23T03:58:11;100103.03;;;15.17;62.37
48517;BME280;34310;51.904;4.256;2023-03-23T04:00:38;100103.03;;;15.17;62.37
48517;BME280;34310;51.904;4.256;2023-03-23T04:03:05;100114.31;;;15.17;62.23
48517;BME280;34310;51.904;4.256;2023-03-23T04:05:31;100114.31;;;15.17;62.11
48517;BME280;34310;51.904;4.256;2023-03-23T04:07:59;100114.31;;;15.17;62.26
48517;BME280;34310;51.904;4.256;2023-03-23T04:10:28;100113.44;;;15.17;62.12
48517;BME280;34310;51.904;4.256;2023-03-23T04:12:55;100122.94;;;15.16;62.12
48517;BME280;34310;51.904;4.256;2023-03-23T04:15:25;100116.03;;;15.17;62.20
48517;BME280;34310;51.904;4.256;2023-03-23T04:17:52;100126.44;;;15.17;62.23
48517;BME280;34310;51.904;4.256;2023-03-23T04:20:18;100125.59;;;15.18;62.28
48517;BME280;34310;51.904;4.256;2023-03-23T04:22:48;100134.22;;;15.17;62.19
48517;BME280;34310;51.904;4.256;2023-03-23T04:25:17;100138.53;;;15.16;62.32
48517;BME280;34310;51.904;4.256;2023-03-23T04:27:48;100154.16;;;15.16;62.35
48517;BME280;34310;51.904;4.256;2023-03-23T04:30:22;100149.84;;;15.17;62.44
48517;BME280;34310;51.904;4.256;2023-03-23T04:32:51;100155.03;;;15.17;62.29
48517;BME280;34310;51.904;4.256;2023-03-23T04:35:19;100152.44;;;15.17;62.28
48517;BME280;34310;51.904;4.256;2023-03-23T04:37:46;100140.31;;;15.17;62.39
48517;BME280;34310;51.904;4.256;2023-03-23T04:40:14;100162.84;;;15.17;62.38
48517;BME280;34310;51.904;4.256;2023-03-23T04:42:42;100162.84;;;15.17;62.30
48517;BME280;34310;51.904;4.256;2023-03-23T04:45:18;100162.84;;;15.17;62.33
48517;BME280;34310;51.904;4.256;2023-03-23T04:47:49;100150.72;;;15.17;62.42
48517;BME280;34310;51.904;4.256;2023-03-23T04:50:26;100143.81;;;15.18;62.35
48517;BME280;34310;51.904;4.256;2023-03-23T04:52:53;100151.59;;;15.18;62.38
48517;BME280;34310;51.904;4.256;2023-03-23T04:55:25;100142.97;;;15.19;62.32
48517;BME280;34310;51.904;4.256;2023-03-23T04:57:52;100155.97;;;15.19;62.32
48517;BME280;34310;51.904;4.256;2023-03-23T05:00:18;100143.81;;;15.18;62.33
48517;BME280;34310;51.904;4.256;2023-03-23T05:02:47;100140.38;;;15.19;62.41
48517;BME280;34310;51.904;4.256;2023-03-23T05:05:18;100153.38;;;15.19;62.39
48517;BME280;34310;51.904;4.256;2023-03-23T05:07:45;100148.19;;;15.19;62.38
48517;BME280;34310;51.904;4.256;2023-03-23T05:10:13;100158.59;;;15.19;62.42
48517;BME280;34310;51.904;4.256;2023-03-23T05:12:42;100158.59;;;15.19;62.35
48517;BME280;34310;51.904;4.256;2023-03-23T05:15:10;100166.44;;;15.21;62.37
48517;BME280;34310;51.904;4.256;2023-03-23T05:17:37;100162.06;;;15.19;62.41
48517;BME280;34310;51.904;4.256;2023-03-23T05:20:05;100168.16;;;15.20;62.45
48517;BME280;34310;51.904;4.256;2023-03-23T05:22:34;100165.56;;;15.20;62.46
48517;BME280;34310;51.904;4.256;2023-03-23T05:25:02;100186.38;;;15.20;62.43
48517;BME280;34310;51.904;4.256;2023-03-23T05:27:29;100179.38;;;15.19;62.45
48517;BME280;34310;51.904;4.256;2023-03-23T05:29:57;100180.28;;;15.19;62.33
48517;BME280;34310;51.904;4.256;2023-03-23T05:32:25;100188.06;;;15.19;62.35
48517;BME280;34310;51.904;4.256;2023-03-23T05:34:59;100180.28;;;15.19;62.38
48517;BME280;34310;51.904;4.256;2023-03-23T05:37:27;100194.09;;;15.18;62.54
48517;BME280;34310;51.904;4.256;2023-03-23T05:39:58;100195.88;;;15.19;62.61
48517;BME280;34310;51.904;4.256;2023-03-23T05:42:34;100187.19;;;15.19;62.54
48517;BME280;34310;51.904;4.256;2023-03-23T05:45:01;100188.06;;;15.19;62.60
48517;BME280;34310;51.904;4.256;2023-03-23T05:47:28;100195.00;;;15.19;62.51
48517;BME280;34310;51.904;4.256;2023-03-23T05:49:54;100204.56;;;15.20;62.40
48517;BME280;34310;51.904;4.256;2023-03-23T05:52:21;100201.00;;;15.18;62.51
48517;BME280;34310;51.904;4.256;2023-03-23T05:54:47;100201.91;;;15.18;62.48
48517;BME280;34310;51.904;4.256;2023-03-23T05:57:13;100202.72;;;15.17;62.46
48517;BME280;34310;51.904;4.256;2023-03-23T05:59:39;100204.50;;;15.18;62.51
48517;BME280;34310;51.904;4.256;2023-03-23T06:02:05;100210.59;;;15.19;62.50
48517;BME280;34310;51.904;4.256;2023-03-23T06:04:32;100211.41;;;15.18;62.42
48517;BME280;34310;51.904;4.256;2023-03-23T06:07:02;100221.81;;;15.18;62.44
48517;BME280;34310;51.904;4.256;2023-03-23T06:09:29;100223.53;;;15.17;62.33
48517;BME280;34310;51.904;4.256;2023-03-23T06:11:56;100229.63;;;15.18;62.40
48517;BME280;34310;51.904;4.256;2023-03-23T06:14:23;100237.41;;;15.18;62.38
48517;BME280;34310;51.904;4.256;2023-03-23T06:16:49;100243.44;;;15.17;62.37
48517;BME280;34310;51.904;4.256;2023-03-23T06:19:15;100243.44;;;15.17;62.40
48517;BME280;34310;51.904;4.256;2023-03-23T06:21:42;100245.22;;;15.18;62.44
48517;BME280;34310;51.904;4.256;2023-03-23T06:24:09;100238.25;;;15.17;62.44
48517;BME280;34310;51.904;4.256;2023-03-23T06:26:38;100237.34;;;15.16;62.49
48517;BME280;34310;51.904;4.256;2023-03-23T06:29:05;100246.94;;;15.17;62.27
48517;BME280;34310;51.904;4.256;2023-03-23T06:31:48;100251.25;;;15.17;62.44
48517;BME280;34310;51.904;4.256;2023-03-23T06:34:15;100248.66;;;15.17;62.37
48517;BME280;34310;51.904;4.256;2023-03-23T06:36:42;100261.66;;;15.17;62.47
48517;BME280;34310;51.904;4.256;2023-03-23T06:39:10;100266.03;;;15.18;62.37
48517;BME280;34310;51.904;4.256;2023-03-23T06:41:37;100264.25;;;15.17;62.38
48517;BME280;34310;51.904;4.256;2023-03-23T06:44:03;100264.25;;;15.17;62.27
48517;BME280;34310;51.904;4.256;2023-03-23T06:46:29;100258.16;;;15.16;62.28
48517;BME280;34310;51.904;4.256;2023-03-23T06:48:56;100276.41;;;15.18;62.33
48517;BME280;34310;51.904;4.256;2023-03-23T06:51:23;100270.41;;;15.19;62.30
48517;BME280;34310;51.904;4.256;2023-03-23T06:53:49;100262.53;;;15.17;62.19
48517;BME280;34310;51.904;4.256;2023-03-23T06:56:15;100266.91;;;15.18;62.23
48517;BME280;34310;51.904;4.256;2023-03-23T06:58:42;100279.03;;;15.18;62.36
48517;BME280;34310;51.904;4.256;2023-03-23T07:01:08;100267.72;;;15.17;62.39
48517;BME280;34310;51.904;4.256;2023-03-23T07:03:35;100260.75;;;15.16;62.42
48517;BME280;34310;51.904;4.256;2023-03-23T07:06:03;100260.81;;;15.18;62.28
48517;BME280;34310;51.904;4.256;2023-03-23T07:08:30;100265.19;;;15.19;62.33
48517;BME280;34310;51.904;4.256;2023-03-23T07:10:56;100272.03;;;15.17;62.40
48517;BME280;34310;51.904;4.256;2023-03-23T07:13:23;100272.94;;;15.17;62.42
48517;BME280;34310;51.904;4.256;2023-03-23T07:15:50;100275.53;;;15.17;62.50
48517;BME280;34310;51.904;4.256;2023-03-23T07:18:17;100280.75;;;15.17;62.48
48517;BME280;34310;51.904;4.256;2023-03-23T07:20:46;100279.84;;;15.17;62.56
48517;BME280;34310;51.904;4.256;2023-03-23T07:23:12;100278.13;;;15.17;62.46
48517;BME280;34310;51.904;4.256;2023-03-23T07:25:38;100274.66;;;15.17;62.50
48517;BME280;34310;51.904;4.256;2023-03-23T07:28:05;100271.22;;;15.18;62.45
48517;BME280;34310;51.904;4.256;2023-03-23T07:30:32;100263.41;;;15.18;62.46
48517;BME280;34310;51.904;4.256;2023-03-23T07:32:58;100275.53;;;15.17;62.53
48517;BME280;34310;51.904;4.256;2023-03-23T07:35:25;100283.34;;;15.17;62.50
48517;BME280;34310;51.904;4.256;2023-03-23T07:37:52;100279.91;;;15.18;62.51
48517;BME280;34310;51.904;4.256;2023-03-23T07:40:19;100283.34;;;15.17;62.51
48517;BME280;34310;51.904;4.256;2023-03-23T07:42:55;100275.53;;;15.17;62.47
48517;BME280;34310;51.904;4.256;2023-03-23T07:45:25;100286.81;;;15.18;62.61
48517;BME280;34310;51.904;4.256;2023-03-23T07:47:51;100300.72;;;15.18;62.52
48517;BME280;34310;51.904;4.256;2023-03-23T07:50:19;100295.50;;;15.18;62.55
48517;BME280;34310;51.904;4.256;2023-03-23T07:52:53;100291.19;;;15.19;62.62
48517;BME280;34310;51.904;4.256;2023-03-23T07:55:19;100294.69;;;15.19;62.50
48517;BME280;34310;51.904;4.256;2023-03-23T07:57:47;100299.00;;;15.19;62.57
48517;BME280;34310;51.904;4.256;2023-03-23T08:00:18;100306.81;;;15.19;62.63
48517;BME280;34310;51.904;4.256;2023-03-23T08:02:54;100311.19;;;15.20;62.60
48517;BME280;34310;51.904;4.256;2023-03-23T08:05:26;100303.38;;;15.20;62.62
48517;BME280;34310;51.904;4.256;2023-03-23T08:07:54;100315.56;;;15.21;62.40
48517;BME280;34310;51.904;4.256;2023-03-23T08:10:21;100306.88;;;15.21;62.59
48517;BME280;34310;51.904;4.256;2023-03-23T08:12:52;100309.47;;;15.21;62.57
48517;BME280;34310;51.904;4.256;2023-03-23T08:15:19;100316.44;;;15.22;62.46
48517;BME280;34310;51.904;4.256;2023-03-23T08:17:47;100320.75;;;15.21;62.48
48517;BME280;34310;51.904;4.256;2023-03-23T08:20:14;100314.66;;;15.21;62.50
48517;BME280;34310;51.904;4.256;2023-03-23T08:22:42;100324.19;;;15.20;62.59
48517;BME280;34310;51.904;4.256;2023-03-23T08:25:12;100322.47;;;15.21;62.51
48517;BME280;34310;51.904;4.256;2023-03-23T08:27:39;100321.66;;;15.22;62.50
48517;BME280;34310;51.904;4.256;2023-03-23T08:30:11;100319.88;;;15.21;62.52
48517;BME280;34310;51.904;4.256;2023-03-23T08:32:39;100325.13;;;15.22;62.56
48517;BME280;34310;51.904;4.256;2023-03-23T08:35:07;100335.53;;;15.22;62.47
48517;BME280;34310;51.904;4.256;2023-03-23T08:37:35;100334.72;;;15.23;62.49
48517;BME280;34310;51.904;4.256;2023-03-23T08:40:02;100336.44;;;15.23;62.48
48517;BME280;34310;51.904;4.256;2023-03-23T08:42:48;100337.31;;;15.23;62.56
48517;BME280;34310;51.904;4.256;2023-03-23T08:45:21;100352.91;;;15.23;62.49
48517;BME280;34310;51.904;4.256;2023-03-23T08:47:48;100337.31;;;15.23;62.43
48517;BME280;34310;51.904;4.256;2023-03-23T08:50:25;100350.38;;;15.25;62.39
48517;BME280;34310;51.904;4.256;2023-03-23T08:52:53;100342.59;;;15.25;62.50
48517;BME280;34310;51.904;4.256;2023-03-23T08:55:20;100338.22;;;15.24;62.47
48517;BME280;34310;51.904;4.256;2023-03-23T08:57:47;100342.66;;;15.26;62.45
48517;BME280;34310;51.904;4.256;2023-03-23T09:00:18;100323.56;;;15.26;62.53
48517;BME280;34310;51.904;4.256;2023-03-23T09:02:47;100331.44;;;15.27;62.49
48517;BME280;34310;51.904;4.256;2023-03-23T09:05:15;100331.34;;;15.26;62.47
48517;BME280;34310;51.904;4.256;2023-03-23T09:07:46;100331.34;;;15.26;62.44
48517;BME280;34310;51.904;4.256;2023-03-23T09:10:14;100344.44;;;15.27;62.55
48517;BME280;34310;51.904;4.256;2023-03-23T09:12:41;100347.03;;;15.27;62.61
48517;BME280;34310;51.904;4.256;2023-03-23T09:15:10;100352.22;;;15.27;62.61
48517;BME280;34310;51.904;4.256;2023-03-23T09:17:42;100353.19;;;15.29;62.50
48517;BME280;34310;51.904;4.256;2023-03-23T09:20:11;100347.91;;;15.28;62.57
48517;BME280;34310;51.904;4.256;2023-03-23T09:22:45;100343.59;;;15.28;62.52
48517;BME280;34310;51.904;4.256;2023-03-23T09:25:16;100349.75;;;15.30;62.49
48517;BME280;34310;51.904;4.256;2023-03-23T09:27:45;100362.75;;;15.30;62.65
48517;BME280;34310;51.904;4.256;2023-03-23T09:30:14;100366.25;;;15.31;62.66
48517;BME280;34310;51.904;4.256;2023-03-23T09:32:45;100361.06;;;15.31;62.66
48517;BME280;34310;51.904;4.256;2023-03-23T09:35:14;100366.31;;;15.32;62.68
48517;BME280;34310;51.904;4.256;2023-03-23T09:37:43;100370.63;;;15.32;62.81
48517;BME280;34310;51.904;4.256;2023-03-23T09:40:25;100370.63;;;15.32;62.71
48517;BME280;34310;51.904;4.256;2023-03-23T09:43:20;100373.22;;;15.32;62.65
48517;BME280;34310;51.904;4.256;2023-03-23T09:48:59;100389.81;;;15.34;62.76
48517;BME280;34310;51.904;4.256;2023-03-23T09:56:39;100395.91;;;15.34;62.79
48517;BME280;34310;51.904;4.256;2023-03-23T10:01:52;100393.38;;;15.36;62.63
48517;BME280;34310;51.904;4.256;2023-03-23T10:04:49;100399.41;;;15.35;62.74
48517;BME280;34310;51.904;4.256;2023-03-23T10:07:21;100399.41;;;15.35;62.77
48517;BME280;34310;51.904;4.256;2023-03-23T10:09:51;100400.31;;;15.35;62.74
48517;BME280;34310;51.904;4.256;2023-03-23T10:17:59;100403.03;;;15.38;62.90
48517;BME280;34310;51.904;4.256;2023-03-23T10:20:35;100392.63;;;15.38;62.79
48517;BME280;34310;51.904;4.256;2023-03-23T10:23:41;100390.91;;;15.39;62.88
48517;BME280;34310;51.904;4.256;2023-03-23T10:28:46;100387.50;;;15.40;62.82
48517;BME280;34310;51.904;4.256;2023-03-23T10:31:17;100400.50;;;15.40;62.83
48517;BME280;34310;51.904;4.256;2023-03-23T10:33:49;100410.09;;;15.41;62.94
48517;BME280;34310;51.904;4.256;2023-03-23T10:36:19;100399.75;;;15.42;62.92
48517;BME280;34310;51.904;4.256;2023-03-23T10:38:59;100401.47;;;15.42;62.95
48517;BME280;34310;51.904;4.256;2023-03-23T10:41:27;100395.44;;;15.43;62.96
48517;BME280;34310;51.904;4.256;2023-03-23T10:43:53;100401.53;;;15.43;62.93
48517;BME280;34310;51.904;4.256;2023-03-23T10:49:19;100398.97;;;15.45;62.81
48517;BME280;34310;51.904;4.256;2023-03-23T10:52:04;100393.84;;;15.46;62.91
48517;BME280;34310;51.904;4.256;2023-03-23T10:54:37;100388.66;;;15.46;62.90
48517;BME280;34310;51.904;4.256;2023-03-23T10:57:26;100394.72;;;15.47;63.06
48517;BME280;34310;51.904;4.256;2023-03-23T11:05:36;100399.19;;;15.49;62.97
48517;BME280;34310;51.904;4.256;2023-03-23T11:08:10;100387.06;;;15.50;62.93
48517;BME280;34310;51.904;4.256;2023-03-23T11:10:41;100397.53;;;15.52;63.03
48517;BME280;34310;51.904;4.256;2023-03-23T11:13:16;100395.75;;;15.50;63.11
48517;BME280;34310;51.904;4.256;2023-03-23T11:15:44;100393.22;;;15.52;63.07
48517;BME280;34310;51.904;4.256;2023-03-23T11:18:23;100383.69;;;15.53;63.06
48517;BME280;34310;51.904;4.256;2023-03-23T11:20:54;100387.19;;;15.53;63.07
48517;BME280;34310;51.904;4.256;2023-03-23T11:23:50;100395.06;;;15.55;63.12
48517;BME280;34310;51.904;4.256;2023-03-23T11:26:29;100383.00;;;15.57;63.02
48517;BME280;34310;51.904;4.256;2023-03-23T11:29:09;100381.28;;;15.57;63.05
48517;BME280;34310;51.904;4.256;2023-03-23T11:31:46;100373.50;;;15.57;63.10
48517;BME280;34310;51.904;4.256;2023-03-23T11:34:25;100382.19;;;15.58;62.99
48517;BME280;34310;51.904;4.256;2023-03-23T11:39:58;100397.06;;;15.60;63.08
48517;BME280;34310;51.904;4.256;2023-03-23T11:48:18;100403.31;;;15.64;63.02
48517;BME280;34310;51.904;4.256;2023-03-23T11:50:52;100396.41;;;15.64;63.21
48517;BME280;34310;51.904;4.256;2023-03-23T11:58:47;100388.72;;;15.67;63.16
48517;BME280;34310;51.904;4.256;2023-03-23T12:01:27;100385.31;;;15.68;63.21
48517;BME280;34310;51.904;4.256;2023-03-23T12:04:25;100392.28;;;15.69;63.10
48517;BME280;34310;51.904;4.256;2023-03-23T12:07:03;100397.56;;;15.71;63.12
48517;BME280;34310;51.904;4.256;2023-03-23T12:15:47;100394.25;;;15.75;63.01
48517;BME280;34310;51.904;4.256;2023-03-23T12:18:30;100389.94;;;15.75;63.01
48517;BME280;34310;51.904;4.256;2023-03-23T12:21:18;100384.78;;;15.77;63.09
48517;BME280;34310;51.904;4.256;2023-03-23T12:26:37;100381.38;;;15.78;63.01
48517;BME280;34310;51.904;4.256;2023-03-23T12:31:53;100371.97;;;15.82;63.07
48517;BME280;34310;51.904;4.256;2023-03-23T12:34:41;100366.75;;;15.82;63.01
48517;BME280;34310;51.904;4.256;2023-03-23T12:37:32;100376.34;;;15.83;63.01
48517;BME280;34310;51.904;4.256;2023-03-23T12:46:28;100373.88;;;15.86;63.12
48517;BME280;34310;51.904;4.256;2023-03-23T12:48:54;100379.97;;;15.86;63.16
48517;BME280;34310;51.904;4.256;2023-03-23T12:51:37;100382.63;;;15.88;63.27
48517;BME280;34310;51.904;4.256;2023-03-23T13:02:27;100408.91;;;15.92;63.11
48517;BME280;34310;51.904;4.256;2023-03-23T13:07:56;100397.72;;;15.95;63.06
48517;BME280;34310;51.904;4.256;2023-03-23T13:10:39;100403.00;;;15.96;63.23
48517;BME280;34310;51.904;4.256;2023-03-23T13:13:19;100411.75;;;15.98;63.10
48517;BME280;34310;51.904;4.256;2023-03-23T13:16:09;100409.22;;;16.00;63.08
48517;BME280;34310;51.904;4.256;2023-03-23T13:19:02;100415.31;;;16.00;63.08
48517;BME280;34310;51.904;4.256;2023-03-23T13:22:20;100402.34;;;16.02;63.17
48517;BME280;34310;51.904;4.256;2023-03-23T13:24:23;100412.81;;;16.03;63.22
48517;BME280;34310;51.904;4.256;2023-03-23T13:26:51;100407.69;;;16.05;63.27
48517;BME280;34310;51.904;4.256;2023-03-23T13:29:22;100405.97;;;16.05;63.26
48517;BME280;34310;51.904;4.256;2023-03-23T13:32:11;100410.34;;;16.06;63.25
48517;BME280;34310;51.904;4.256;2023-03-23T13:34:40;100413.91;;;16.08;63.22
48517;BME280;34310;51.904;4.256;2023-03-23T13:39:51;100408.81;;;16.11;63.19
48517;BME280;34310;51.904;4.256;2023-03-23T13:42:24;100398.47;;;16.13;63.14
48517;BME280;34310;51.904;4.256;2023-03-23T14:08:40;100379.09;;;16.27;63.19
48517;BME280;34310;51.904;4.256;2023-03-23T14:11:17;100363.53;;;16.29;63.22
48517;BME280;34310;51.904;4.256;2023-03-23T14:14:01;100354.88;;;16.30;63.21
48517;BME280;34310;51.904;4.256;2023-03-23T14:16:50;100329.78;;;16.32;63.18
48517;BME280;34310;51.904;4.256;2023-03-23T14:19:31;100341.16;;;16.34;63.18
48517;BME280;34310;51.904;4.256;2023-03-23T14:21:59;100313.31;;;16.33;63.07
48517;BME280;34310;51.904;4.256;2023-03-23T14:24:33;100306.44;;;16.35;63.04
48517;BME280;34310;51.904;4.256;2023-03-23T14:27:15;100311.72;;;16.36;63.19
48517;BME280;34310;51.904;4.256;2023-03-23T14:29:42;100301.34;;;16.38;63.27
48517;BME280;34310;51.904;4.256;2023-03-23T14:32:19;100293.66;;;16.41;63.09
48517;BME280;34310;51.904;4.256;2023-03-23T14:34:51;100295.44;;;16.42;63.23
48517;BME280;34310;51.904;4.256;2023-03-23T14:37:18;100292.88;;;16.43;63.22
48517;BME280;34310;51.904;4.256;2023-03-23T14:39:50;100292.06;;;16.45;63.11
48517;BME280;34310;51.904;4.256;2023-03-23T14:42:33;100303.41;;;16.47;63.10
48517;BME280;34310;51.904;4.256;2023-03-23T14:45:01;100303.50;;;16.48;63.23
48517;BME280;34310;51.904;4.256;2023-03-23T14:47:31;100304.31;;;16.47;63.01
48517;BME280;34310;51.904;4.256;2023-03-23T14:50:00;100315.75;;;16.51;63.06
48517;BME280;34310;51.904;4.256;2023-03-23T14:52:34;100311.44;;;16.51;63.15
48517;BME280;34310;51.904;4.256;2023-03-23T14:55:30;100315.00;;;16.53;63.10
48517;BME280;34310;51.904;4.256;2023-03-23T14:58:09;100311.56;;;16.54;63.12
48517;BME280;34310;51.904;4.256;2023-03-23T15:00:45;100297.63;;;16.54;62.99
48517;BME280;34310;51.904;4.256;2023-03-23T15:03:16;100302.97;;;16.57;63.15
48517;BME280;34310;51.904;4.256;2023-03-23T15:05:47;100286.44;;;16.56;63.06